Larkfield, United Kingdom
Current Conditions -  °F | °C
As of 2:20 PM on Monday 24 Nov 2014 (Local Time) from EGKB Reporting Station
Clear Clear  
Wind Chill: 42°   Ceiling: Unl
Heat Index: 45°   Visibility: 6mi
Dew Point: 37°   Wind: 5mph
Humidity: 76%   Direction: 350°N
Pressure: 30.33"   Gusts: NA
Location:  51.29°N, 0.43°E
Report Text: EGKB 241420Z 35004KT CAVOK 07/03 Q1027
Loading
Personal Weather Stations






























Interactive Weather Map New forecast layout! Learn more

10-Day Weather Forecast

Advertisements
Track Severe Weather on mobile